Terminal Aerodrome Forecast
Issued by NWS

Current Version | Previous Version | Text Only | Print | Product List | Glossary Off
Versions: 1 2 3 4 5 6 7 8 9 10 11 12 13 14 15 16 17 18 19 20 21 22 23 24 25 26 27

838
FTUS41 KRLX 282336 AAB
TAFCKB
TAF AMD
KCKB 282336Z 2823/2924 22008KT P6SM BKN045
     FM290500 22005KT 6SM SHRA VCTS OVC025CB
     FM290900 24006KT P6SM BKN015
     FM291500 26007KT P6SM SCT025
     FM291700 26008KT P6SM SCT035=

USA.gov is the U.S. government's official web portal to all federal, state and local government web resources and services.